createdAt,value
2022-12-29T00:04:31.471Z,11.7
2022-12-29T00:10:20.843Z,11.7
2022-12-29T00:16:09.701Z,11.6
2022-12-29T00:24:17.329Z,11.6
2022-12-29T00:30:07.078Z,11.5
2022-12-29T00:35:59.942Z,11.5
2022-12-29T00:41:50.009Z,11.4
2022-12-29T00:47:40.255Z,11.4
2022-12-29T00:53:30.794Z,11.3
2022-12-29T00:59:21.587Z,11.4
2022-12-29T01:05:14.054Z,11.4
2022-12-29T01:11:06.464Z,11.5
2022-12-29T01:16:58.525Z,11.8
2022-12-29T01:22:49.775Z,11.9
2022-12-29T01:28:40.244Z,11.9
2022-12-29T01:34:31.225Z,12
2022-12-29T01:40:26.281Z,11.9
2022-12-29T01:46:20.183Z,11.8
2022-12-29T01:52:11.386Z,11.8
2022-12-29T01:58:02.931Z,11.8
2022-12-29T02:03:53.931Z,11.9
2022-12-29T02:09:42.293Z,11.9
2022-12-29T02:15:31.170Z,11.9
2022-12-29T02:21:23.144Z,11.9
2022-12-29T02:27:15.505Z,11.9
2022-12-29T02:33:06.922Z,11.9
2022-12-29T02:39:00.363Z,11.9
2022-12-29T02:44:51.129Z,11.8
2022-12-29T02:50:41.220Z,11.8
2022-12-29T02:56:32.085Z,11.8
2022-12-29T03:02:23.527Z,11.8
2022-12-29T03:08:17.129Z,11.9
2022-12-29T03:14:08.255Z,11.9
2022-12-29T03:19:59.343Z,11.9
2022-12-29T03:25:51.147Z,12
2022-12-29T03:31:41.736Z,12
2022-12-29T03:37:33.702Z,12
2022-12-29T03:43:24.736Z,11.9
2022-12-29T03:49:15.779Z,12
2022-12-29T03:55:07.548Z,12
2022-12-29T04:00:59.770Z,12
2022-12-29T04:06:50.901Z,12
2022-12-29T04:12:41.683Z,12
2022-12-29T04:18:32.963Z,11.9
2022-12-29T04:24:25.222Z,11.9
2022-12-29T04:30:16.921Z,11.8
2022-12-29T04:36:09.173Z,11.7
2022-12-29T04:42:00.021Z,11.8
2022-12-29T04:47:50.686Z,11.7
2022-12-29T04:53:41.946Z,11.7
2022-12-29T04:59:33.842Z,11.8
2022-12-29T05:05:24.148Z,11.7
2022-12-29T05:11:16.094Z,11.5
2022-12-29T05:17:07.079Z,11.4
2022-12-29T05:22:55.946Z,11.4
2022-12-29T05:28:46.261Z,11.4
2022-12-29T05:34:38.562Z,11.3
2022-12-29T05:40:28.789Z,11.4
2022-12-29T05:46:20.214Z,11.4
2022-12-29T05:52:11.869Z,11.4
2022-12-29T05:58:03.767Z,11.4
2022-12-29T06:03:54.451Z,11.4
2022-12-29T06:09:43.282Z,11.4
2022-12-29T06:15:33.250Z,11.4
2022-12-29T06:21:23.928Z,11.4
2022-12-29T06:27:15.083Z,11.4
2022-12-29T06:33:05.079Z,11.4
2022-12-29T06:38:54.177Z,11.4
2022-12-29T06:44:45.193Z,11.3
2022-12-29T06:50:35.104Z,11.2
2022-12-29T06:56:23.979Z,11.2
2022-12-29T07:02:13.600Z,11.2
2022-12-29T07:08:07.678Z,11.3
2022-12-29T07:13:57.296Z,11.2
2022-12-29T07:19:49.224Z,11.2
2022-12-29T07:25:38.418Z,11.2
2022-12-29T07:31:27.698Z,11.1
2022-12-29T07:37:18.457Z,11.2
2022-12-29T07:43:07.446Z,11.1
2022-12-29T07:49:00.016Z,11.1
2022-12-29T07:54:48.808Z,11.1
2022-12-29T08:00:38.692Z,11.1
2022-12-29T08:06:29.653Z,11.1
2022-12-29T08:12:18.732Z,11.1
2022-12-29T08:18:08.889Z,11.1
2022-12-29T08:23:59.521Z,11
2022-12-29T08:29:51.239Z,11.1
2022-12-29T08:35:41.924Z,11
2022-12-29T08:41:33.164Z,11.1
2022-12-29T08:47:24.954Z,11
2022-12-29T08:53:15.767Z,11
2022-12-29T08:59:07.952Z,11
2022-12-29T09:04:59.345Z,11
2022-12-29T09:10:50.535Z,11
2022-12-29T09:16:41.492Z,11
2022-12-29T09:22:32.308Z,11.1
2022-12-29T09:28:23.624Z,11.1
2022-12-29T09:34:15.119Z,11
2022-12-29T09:40:06.211Z,11
2022-12-29T09:45:57.696Z,11
2022-12-29T09:51:50.707Z,11.1
2022-12-29T09:57:42.752Z,11.1
2022-12-29T10:03:33.794Z,11.2
2022-12-29T10:09:23.630Z,11.3
2022-12-29T10:15:14.827Z,11.4
2022-12-29T10:21:05.971Z,11.5
2022-12-29T10:26:56.353Z,11.5
2022-12-29T10:32:46.974Z,11.5
2022-12-29T10:38:38.411Z,11.5
2022-12-29T10:44:27.887Z,11.6
2022-12-29T10:50:18.363Z,11.6
2022-12-29T10:56:08.872Z,11.7
2022-12-29T11:02:00.603Z,11.8
2022-12-29T11:07:56.079Z,11.9
2022-12-29T11:13:46.512Z,11.9
2022-12-29T11:19:40.646Z,11.9
2022-12-29T11:25:31.058Z,11.9
2022-12-29T11:31:24.347Z,11.9
2022-12-29T11:37:12.927Z,11.9
2022-12-29T11:43:01.075Z,11.9
2022-12-29T11:48:51.441Z,12
2022-12-29T11:54:40.676Z,12
2022-12-29T12:00:29.083Z,12
2022-12-29T12:06:19.205Z,12
2022-12-29T12:12:09.982Z,12
2022-12-29T12:18:00.427Z,12
2022-12-29T12:23:50.066Z,11.9
2022-12-29T12:29:40.017Z,11.9
2022-12-29T12:35:32.153Z,11.9
2022-12-29T12:41:22.262Z,11.9
2022-12-29T12:47:13.683Z,11.9
2022-12-29T12:53:03.032Z,11.9
2022-12-29T12:58:53.477Z,11.9
2022-12-29T13:04:53.541Z,11.9
2022-12-29T13:10:42.567Z,11.9
2022-12-29T13:16:40.661Z,11.9
2022-12-29T13:22:30.661Z,11.9
2022-12-29T13:28:24.049Z,11.9
2022-12-29T13:34:13.913Z,11.9
2022-12-29T13:40:02.987Z,11.9
2022-12-29T13:45:52.603Z,11.8
2022-12-29T13:51:42.766Z,11.9
2022-12-29T13:57:33.541Z,11.9
2022-12-29T14:03:26.627Z,11.8
2022-12-29T14:09:30.388Z,11.7
2022-12-29T14:15:24.344Z,11.9
2022-12-29T14:27:48.963Z,11.7
2022-12-29T14:33:43.717Z,11.7
2022-12-29T14:39:38.006Z,11.6
2022-12-29T14:45:36.734Z,11.7
2022-12-29T14:51:30.739Z,11.5
2022-12-29T14:57:23.428Z,11.4
2022-12-29T15:03:13.819Z,11.3
2022-12-29T15:09:09.765Z,11.2
2022-12-29T15:14:59.622Z,11.3
2022-12-29T15:20:53.395Z,11.2
2022-12-29T15:26:45.211Z,11.2
2022-12-29T15:32:39.405Z,11.1
2022-12-29T15:38:37.216Z,11
2022-12-29T15:44:28.538Z,10.9
2022-12-29T15:50:20.221Z,10.8
2022-12-29T15:56:10.749Z,10.7
2022-12-29T16:02:05.953Z,10.6
2022-12-29T16:08:05.384Z,10.6
2022-12-29T16:13:59.902Z,10.4
2022-12-29T16:19:51.950Z,10.4
2022-12-29T16:25:52.505Z,10.2
2022-12-29T16:31:45.910Z,10.3
2022-12-29T16:37:36.373Z,10.3
2022-12-29T16:43:25.811Z,10.1
2022-12-29T16:49:24.855Z,10
2022-12-29T16:55:13.857Z,9.9
2022-12-29T17:01:03.163Z,9.9
2022-12-29T17:06:54.148Z,9.9
2022-12-29T17:12:44.140Z,9.8
2022-12-29T17:18:34.917Z,9.8
2022-12-29T17:24:25.041Z,9.7
2022-12-29T17:30:21.065Z,9.6
2022-12-29T17:36:21.785Z,9.6
2022-12-29T17:42:12.597Z,9.5
2022-12-29T17:48:03.253Z,9.5
2022-12-29T17:53:52.622Z,9.5
2022-12-29T17:59:44.003Z,9.5
2022-12-29T18:05:39.162Z,9.4
2022-12-29T18:11:34.616Z,9.3
2022-12-29T18:17:27.565Z,9.3
2022-12-29T18:23:17.818Z,9.4
2022-12-29T18:29:08.975Z,9.2
2022-12-29T18:34:59.183Z,9.2
2022-12-29T18:40:51.173Z,9.3
2022-12-29T18:46:41.211Z,9.2
2022-12-29T18:52:34.787Z,9.2
2022-12-29T18:58:30.674Z,9.3
2022-12-29T19:04:21.558Z,9.2
2022-12-29T19:11:22.565Z,9.3
2022-12-29T19:31:01.283Z,9.4
2022-12-29T19:36:52.049Z,9.3
2022-12-29T19:42:40.962Z,9.5
2022-12-29T19:48:30.412Z,9.5
2022-12-29T19:54:19.951Z,9.4
2022-12-29T20:00:10.523Z,9.5
2022-12-29T20:05:59.957Z,9.5
2022-12-29T20:11:49.747Z,9
2022-12-29T20:24:14.962Z,9.3
2022-12-29T20:30:08.029Z,9.3
2022-12-29T20:35:57.430Z,9
2022-12-29T20:41:47.912Z,9.2
2022-12-29T20:47:39.280Z,9.3
2022-12-29T20:53:33.948Z,9.1
2022-12-29T20:59:27.978Z,8.9
2022-12-29T21:05:25.393Z,8.4
2022-12-29T21:11:14.856Z,8.8
2022-12-29T21:17:04.696Z,8.5
2022-12-29T21:22:57.604Z,8.4
2022-12-29T21:28:53.700Z,8.4
2022-12-29T21:34:43.786Z,8.3
2022-12-29T21:40:41.671Z,7.9
2022-12-29T21:46:39.807Z,8.3
2022-12-29T21:52:43.656Z,8.3
2022-12-29T21:58:34.971Z,8.3
2022-12-29T22:04:24.404Z,8.3
2022-12-29T22:10:15.436Z,8.4
2022-12-29T22:16:06.119Z,8.2
2022-12-29T22:21:59.281Z,8
2022-12-29T22:27:54.377Z,7.8
2022-12-29T22:33:47.454Z,7.8
2022-12-29T22:39:36.850Z,7.9
2022-12-29T22:45:26.528Z,7.8
2022-12-29T22:51:16.766Z,7.8
2022-12-29T22:57:06.738Z,7.7
2022-12-29T23:02:56.871Z,7.8
2022-12-29T23:08:47.031Z,7.6
2022-12-29T23:14:35.798Z,7.6
2022-12-29T23:20:24.930Z,7.5
2022-12-29T23:26:15.230Z,7.7
2022-12-29T23:32:05.267Z,7.6
2022-12-29T23:37:54.887Z,7.3
2022-12-29T23:43:44.392Z,7.4
2022-12-29T23:49:35.089Z,7.5
2022-12-29T23:55:25.126Z,7.4
